VHHHZGSZ

Guest
Details From VHHH - Hong Kong Intl
To ZGSZ - BAOAN INTL
Flight Number -
Tags decoded
Created
Modified
Stats Distance 37 nm / 69 km
Max Altitude 0 ft / 0 m
Waypoints 3
Social Downloads 4
Likes 0
Share VATSIM

Download

Looking for another format? Having issues loading an existing format? Contact us
Advertisement - Login to hide

Notes

Requested: VHHH ATENA2A BEKOL BEKOL3X ZGSZ Unmatched points: ATENA2A BEKOL3X

Route

VHHH BEKOL ZGSZ

ID Type Via Altitude Latitude Longitude Leg Dist Tot Dist Heading (true) Name
O VHHH APT - 0 ft / 0 m 22.30899˚ 113.91461˚ - 0 nm - Hong Kong Intl
BEKOL FIX - 0 ft / 0 m 22.54333˚ 114.13333˚ 18 nm 18 nm 41° / 41° -
O ZGSZ APT - 0 ft / 0 m 22.63926˚ 113.81066˚ 18 nm 37 nm 288° / 288° BAOAN INTL

Altitude Profile

Advertisement - Login to hide

VHHH

Details ICAO VHHH (HKG)
Name Hong Kong Intl
Region Hong Kong
Timezone Unknown (UTC+0.0)
Stats Elevation 28 ft / 9 m (AMSL)
Location 22.308995° 113.914610°
Runways 2
Magnetic Variation 2.822° W

METAR

VHHH 130330Z 05007KT 9999 FEW025 SCT035 20/13 Q1019 NOSIG

Decode

TAF

TAF VHHH 122300Z 1300/1406 09015KT 8000 FEW040 TX21/1306Z TX21/1406Z TN18/1323Z

Decode

Departure Runways

ID Width Length Bearing (true) Bearing (mag) Surface Threshold Offset Overrun Length
07L 197 ft / 60 m 12,457 ft / 3,797 m 70.79° 73.61° Asphalt 564 ft / 172 m 866 ft / 264 m
07R 197 ft / 60 m 12,458 ft / 3,797 m 70.79° 73.61° Asphalt 525 ft / 160 m 886 ft / 270 m
25L 197 ft / 60 m 12,458 ft / 3,797 m 250.80° 253.62° Asphalt 0 ft / 0 m 840 ft / 256 m
25R 197 ft / 60 m 12,457 ft / 3,797 m 250.80° 253.62° Asphalt 581 ft / 177 m 860 ft / 262 m

ZGSZ

Details ICAO ZGSZ (SZX)
Name BAOAN INTL
Region China
Timezone Asia/Shanghai (UTC+8.0)
Stats Elevation 13 ft / 4 m (AMSL)
Location 22.639259° 113.810663°
Runways 1
Magnetic Variation 2.861° W

METAR

ZGSZ 130300Z 02003MPS 330V080 8000 OVC043 19/11 Q1020 NOSIG

Decode

TAF

Not found

Destination Runways

ID Width Length Bearing (true) Bearing (mag) Surface Threshold Offset Overrun Length
15 148 ft / 45 m 11,209 ft / 3,416 m 153.15° 156.01° Concrete 0 ft / 0 m 197 ft / 60 m
33 148 ft / 45 m 11,209 ft / 3,416 m 333.15° 336.01° Concrete 0 ft / 0 m 197 ft / 60 m

Approach Navaids

Runway Type Ident Frequency Range Bearing (true) Bearing (mag) Slope Elevation
15 Localiser IQJ 111.30 MHz 18 nm / 33 km 153.14° 156.00° - 13 ft / 4 m (AMSL)
15 Glidescope IQJ 111.30 MHz 10 nm / 19 km 153.15° 156.01° 3.00° 13 ft / 4 m (AMSL)
15 DME IQJ 111.30 MHz 18 nm / 33 km - - - 33 ft / 10 m (AMSL)
33 Localiser IMH 110.70 MHz 18 nm / 33 km 333.13° 335.99° - 13 ft / 4 m (AMSL)
33 Glidescope IMH 110.70 MHz 10 nm / 19 km 333.15° 336.01° 3.00° 13 ft / 4 m (AMSL)
33 DME IMH 110.70 MHz 18 nm / 33 km - - - 26 ft / 8 m (AMSL)

Popular Alternatives